Time;durP1;ratioP1;P1;durP2;ratioP2;P2;SDS_P1;SDS_P2;PMS_P1;PMS_P2;Temp;Humidity;BMP_temperature;BMP_pressure;BME280_temperature;BME280_humidity;BME280_pressure;Samples;Min_cycle;Max_cycle;Signal;HPM_P1;HPM_P2
2024/01/25 09:40:14;;;;;;;;;;;;;;;;;;4937215;29;19946;-95
2024/01/25 09:42:40;;;;;;;;;;;;;;;;;;4948209;29;19918;-96
2024/01/25 09:45:11;;;;;;;;;;;;;;;;;;4956056;29;20349;-92
2024/01/25 09:47:36;;;;;;;;;;;;;;;;;;4956186;29;19918;-90
2024/01/25 09:50:02;;;;;;;;;;;;;;;;;;4956177;29;19902;-95
2024/01/25 09:52:28;;;;;;;;;;;;;;;;;;4959998;29;19917;-90
2024/01/25 09:54:55;;;;;;;;;;;;;;;;;;4959799;29;19930;-89
2024/01/25 09:57:22;;;;;;;;;;;;;;;;;;4962277;29;19909;-88
2024/01/25 09:59:50;;;;;;;;;;;;;;;;;;4962562;29;19903;-88
2024/01/25 10:02:16;;;;;;;;;;;;;;;;;;4943210;29;19903;-89
2024/01/25 10:04:47;;;;;;;;;;;;;;;;;;4962225;29;19946;-89
2024/01/25 10:07:17;;;;;;;;;;;;;;;;;;4961805;29;19906;-89
2024/01/25 10:09:43;;;;;;;;;;;;;;;;;;4960484;29;19914;-94
2024/01/25 10:12:08;;;;;;;;;;;;;;;;;;4960099;29;19913;-88
2024/01/25 10:14:34;;;;;;;;;;;;;;;;;;4958795;29;19918;-88
2024/01/25 10:17:00;;;;;;;;;;;;;;;;;;4958212;29;19911;-89
2024/01/25 10:19:27;;;;;;;;;;;;;;;;;;4958609;29;20361;-89
2024/01/25 10:21:57;;;;;;;;;;;;;;;;;;4938915;29;19899;-88
2024/01/25 10:24:24;;;;;;;;;;;;;;;;;;4956520;29;19922;-86
2024/01/25 10:26:49;;;;;;;;;;;;;;;;;;4945282;29;19978;-86
2024/01/25 10:29:15;;;;;;;;;;;;;;;;;;4942895;29;19965;-88
2024/01/25 10:31:41;;;;;;;;;;;;;;;;;;4939892;29;19915;-89
2024/01/25 10:34:08;;;;;;;;;;;;;;;;;;4938294;29;19915;-90
2024/01/25 10:36:34;;;;;;;;;;;;;;;;;;4938806;29;19926;-93
2024/01/25 10:39:04;;;;;;;;;;;;;;;;;;4940080;29;19914;-92
2024/01/25 10:41:31;;;;;;;;;;;;;;;;;;4941619;29;19918;-92
2024/01/25 10:43:56;;;;;;;;;;;;;;;;;;4959045;29;20009;-90
2024/01/25 10:46:22;;;;;;;;;;;;;;;;;;4941919;29;19954;-90
2024/01/25 10:48:49;;;;;;;;;;;;;;;;;;4941714;29;19915;-90
2024/01/25 10:51:18;;;;;;;;;;;;;;;;;;4941950;29;19918;-91
2024/01/25 10:53:44;;;;;;;;;;;;;;;;;;4943084;29;19942;-92
2024/01/25 10:56:09;;;;;;;;;;;;;;;;;;4943463;29;19914;-91
2024/01/25 10:58:37;;;;;;;;;;;;;;;;;;4941175;29;19914;-91
2024/01/25 11:01:04;;;;;;;;;;;;;;;;;;4940864;29;19914;-91
2024/01/25 11:03:30;;;;;;;;;;;;;;;;;;4958319;28;19921;-91
2024/01/25 11:06:05;;;;;;;;;;;;;;;;;;4940648;29;19953;-91
2024/01/25 11:08:31;;;;;;;;;;;;;;;;;;4940888;29;20017;-92
2024/01/25 11:10:56;;;;;;;;;;;;;;;;;;4941406;29;19914;-92
2024/01/25 11:13:26;;;;;;;;;;;;;;;;;;4944021;29;20010;-92
2024/01/25 11:15:52;;;;;;;;;;;;;;;;;;4946488;29;20285;-93
2024/01/25 11:18:17;;;;;;;;;;;;;;;;;;4941810;29;19914;-92
2024/01/25 11:20:42;;;;;;;;;;;;;;;;;;4942819;29;19914;-96
2024/01/25 11:23:10;;;;;;;;;;;;;;;;;;4942166;29;19914;-93
2024/01/25 11:25:37;;;;;;;;;;;;;;;;;;4941249;29;19937;-92
2024/01/25 11:28:03;;;;;;;;;;;;;;;;;;4942664;29;19919;-92
2024/01/25 11:30:32;;;;;;;;;;;;;;;;;;4945740;28;19918;-96
2024/01/25 11:32:59;;;;;;;;;;;;;;;;;;4961252;29;19914;-93
2024/01/25 11:35:24;;;;;;;;;;;;;;;;;;4961273;29;19962;-96
2024/01/25 11:37:53;;;;;;;;;;;;;;;;;;4943641;29;19937;-95
2024/01/25 11:40:19;;;;;;;;;;;;;;;;;;4942252;29;19918;-94
2024/01/25 11:42:47;;;;;;;;;;;;;;;;;;4941441;29;20388;-95
2024/01/25 11:45:14;;;;;;;;;;;;;;;;;;4941203;29;20014;-93
2024/01/25 11:47:43;;;;;;;;;;;;;;;;;;4941877;29;19914;-94
2024/01/25 11:50:10;;;;;;;;;;;;;;;;;;4941060;29;19915;-96
2024/01/25 11:52:35;;;;;;;;;;;;;;;;;;4942060;29;19914;-96
2024/01/25 11:55:07;;;;;;;;;;;;;;;;;;4948628;28;19938;-92
2024/01/25 11:57:45;;;;;;;;;;;;;;;;;;4960560;28;19937;-93
2024/01/25 12:00:13;;;;;;;;;;;;;;;;;;4959148;28;19922;-90
2024/01/25 12:02:38;;;;;;;;;;;;;;;;;;4964826;28;19969;-96
2024/01/25 12:05:09;;;;;;;;;;;;;;;;;;4971511;28;19917;-94
2024/01/25 12:07:36;;;;;;;;;;;;;;;;;;4971411;28;19914;-96
2024/01/25 12:10:05;;;;;;;;;;;;;;;;;;4972673;28;19985;-96
2024/01/25 12:12:32;;;;;;;;;;;;;;;;;;4956050;28;19918;-96
2024/01/25 12:15:04;;;;;;;;;;;;;;;;;;4968976;28;19941;-95
2024/01/25 12:17:30;;;;;;;;;;;;;;;;;;4970991;28;19921;-96
2024/01/25 12:19:57;;;;;;;;;;;;;;;;;;4969546;28;19914;-96
2024/01/25 12:22:23;;;;;;;;;;;;;;;;;;4974788;28;19914;-94
2024/01/25 12:24:49;;;;;;;;;;;;;;;;;;4972029;28;19920;-94
2024/01/25 12:27:17;;;;;;;;;;;;;;;;;;4968337;28;19941;-94
2024/01/25 12:29:45;;;;;;;;;;;;;;;;;;4972161;28;19913;-94
2024/01/25 12:32:16;;;;;;;;;;;;;;;;;;5054357;23;19973;-96
2024/01/25 12:35:12;;;;;;;;;;;;;;;;;;;;;
2024/01/25 12:37:43;;;;;;;;;;;;;;;;;;4955960;29;19957;-96
2024/01/25 12:51:08;;;;;;;;;;;;;;;;;;4984822;23;19930;-96
2024/01/25 12:53:37;;;;;;;;;;;;;;;;;;4944887;29;19958;-96
2024/01/25 12:56:03;;;;;;;;;;;;;;;;;;4929642;29;19911;-96
2024/01/25 12:58:28;;;;;;;;;;;;;;;;;;4925164;29;19921;-96
2024/01/25 13:00:53;;;;;;;;;;;;;;;;;;4921549;29;19918;-95
2024/01/25 13:03:19;;;;;;;;;;;;;;;;;;4922160;29;20373;-95
2024/01/25 13:05:44;;;;;;;;;;;;;;;;;;4931386;29;19921;-96
2024/01/25 13:08:20;;;;;;;;;;;;;;;;;;4929272;29;19910;-96
2024/01/25 13:10:49;;;;;;;;;;;;;;;;;;4929405;29;20361;-96
2024/01/25 13:13:14;;;;;;;;;;;;;;;;;;4924300;29;20017;-94
2024/01/25 13:15:39;;;;;;;;;;;;;;;;;;4921672;29;19970;-96
2024/01/25 13:18:05;;;;;;;;;;;;;;;;;;4921958;29;19914;-96
2024/01/25 13:20:31;;;;;;;;;;;;;;;;;;4923971;29;20009;-96
2024/01/25 13:23:06;;;;;;;;;;;;;;;;;;4924437;29;19942;-96
2024/01/25 13:25:34;;;;;;;;;;;;;;;;;;4921981;29;19915;-96
2024/01/25 13:28:00;;;;;;;;;;;;;;;;;;4925038;29;20021;-96
2024/01/25 13:30:28;;;;;;;;;;;;;;;;;;4903157;29;20346;-96
2024/01/25 13:32:58;;;;;;;;;;;;;;;;;;4900341;29;19923;-96
2024/01/25 13:35:23;;;;;;;;;;;;;;;;;;4906077;29;19919;-95
2024/01/25 13:37:48;;;;;;;;;;;;;;;;;;4906412;29;19915;-95
2024/01/25 13:40:14;;;;;;;;;;;;;;;;;;4905185;29;20358;-96
2024/01/25 13:42:39;;;;;;;;;;;;;;;;;;4905124;29;19915;-95
2024/01/25 13:45:06;;;;;;;;;;;;;;;;;;4897083;29;20315;-95
2024/01/25 13:47:31;;;;;;;;;;;;;;;;;;4870845;29;20366;-95
2024/01/25 13:49:57;;;;;;;;;;;;;;;;;;4886514;29;20006;-95
2024/01/25 13:52:22;;;;;;;;;;;;;;;;;;4905712;29;19919;-94
2024/01/25 13:54:51;;;;;;;;;;;;;;;;;;4902225;29;19951;-94
2024/01/25 13:57:23;;;;;;;;;;;;;;;;;;4902420;29;19942;-95
2024/01/25 13:59:55;;;;;;;;;;;;;;;;;;4917773;29;19915;-95
2024/01/25 14:02:20;;;;;;;;;;;;;;;;;;4920991;29;19967;-95
2024/01/25 14:04:46;;;;;;;;;;;;;;;;;;4921317;29;19922;-94
2024/01/25 14:07:11;;;;;;;;;;;;;;;;;;4921440;29;19911;-95
2024/01/25 14:09:40;;;;;;;;;;;;;;;;;;4922523;29;19921;-95
2024/01/25 14:12:06;;;;;;;;;;;;;;;;;;4923690;29;19914;-94
2024/01/25 14:14:31;;;;;;;;;;;;;;;;;;4922552;29;20014;-95
2024/01/25 14:17:00;;;;;;;;;;;;;;;;;;4921127;29;19990;-95
2024/01/25 14:19:25;;;;;;;;;;;;;;;;;;4925917;29;19915;-94
2024/01/25 14:21:50;;;;;;;;;;;;;;;;;;4921483;29;20028;-94
2024/01/25 14:24:23;;;;;;;;;;;;;;;;;;4921336;29;19922;-96
2024/01/25 14:26:49;;;;;;;;;;;;;;;;;;4921131;29;19919;-96
2024/01/25 14:29:14;;;;;;;;;;;;;;;;;;4920545;29;19915;-95
2024/01/25 14:31:40;;;;;;;;;;;;;;;;;;4920298;29;19922;-96
2024/01/25 14:34:06;;;;;;;;;;;;;;;;;;4920194;29;19915;-95
2024/01/25 14:36:31;;;;;;;;;;;;;;;;;;4919400;29;20006;-95
2024/01/25 14:38:57;;;;;;;;;;;;;;;;;;4919542;29;20006;-95
2024/01/25 14:41:22;;;;;;;;;;;;;;;;;;4919773;29;19966;-95
2024/01/25 14:43:48;;;;;;;;;;;;;;;;;;4919539;29;19945;-95
2024/01/25 14:46:14;;;;;;;;;;;;;;;;;;4919504;29;19918;-96
2024/01/25 14:48:39;;;;;;;;;;;;;;;;;;4919904;29;20011;-96
2024/01/25 14:51:05;;;;;;;;;;;;;;;;;;4919610;29;19919;-95
2024/01/25 14:53:31;;;;;;;;;;;;;;;;;;4919469;29;19919;-96
2024/01/25 14:55:56;;;;;;;;;;;;;;;;;;4919605;29;19915;-95
2024/01/25 14:58:22;;;;;;;;;;;;;;;;;;4918314;29;20367;-96
2024/01/25 15:00:51;;;;;;;;;;;;;;;;;;4902708;29;19923;-94
2024/01/25 15:03:17;;;;;;;;;;;;;;;;;;4900517;29;19915;-96
2024/01/25 15:05:42;;;;;;;;;;;;;;;;;;4900446;29;20479;-96
2024/01/25 15:08:07;;;;;;;;;;;;;;;;;;4900864;29;19923;-96
2024/01/25 15:10:33;;;;;;;;;;;;;;;;;;4927095;29;19962;-95
2024/01/25 15:13:01;;;;;;;;;;;;;;;;;;4936211;29;19915;-94
2024/01/25 15:15:30;;;;;;;;;;;;;;;;;;4940786;29;19910;-95
2024/01/25 15:17:56;;;;;;;;;;;;;;;;;;4940364;29;20421;-96
2024/01/25 15:20:21;;;;;;;;;;;;;;;;;;4940213;29;19962;-95
2024/01/25 15:22:47;;;;;;;;;;;;;;;;;;4938877;29;20274;-96
2024/01/25 15:25:16;;;;;;;;;;;;;;;;;;4939837;29;19939;-93
2024/01/25 15:27:41;;;;;;;;;;;;;;;;;;4938760;29;19947;-93
2024/01/25 15:30:10;;;;;;;;;;;;;;;;;;4940502;29;20361;-96
2024/01/25 15:32:36;;;;;;;;;;;;;;;;;;4941818;29;19922;-95
2024/01/25 15:35:02;;;;;;;;;;;;;;;;;;4938565;29;19921;-94
2024/01/25 15:37:27;;;;;;;;;;;;;;;;;;4938517;29;19915;-95
2024/01/25 15:39:53;;;;;;;;;;;;;;;;;;4938407;29;19918;-95
2024/01/25 15:42:19;;;;;;;;;;;;;;;;;;4938622;29;19915;-94
2024/01/25 15:44:44;;;;;;;;;;;;;;;;;;4937889;29;19915;-93
2024/01/25 15:47:11;;;;;;;;;;;;;;;;;;4938667;29;19914;-96
2024/01/25 15:49:37;;;;;;;;;;;;;;;;;;4947383;29;20384;-94
2024/01/25 15:52:11;;;;;;;;;;;;;;;;;;4957078;23;19970;-96
2024/01/25 15:54:44;;;;;;;;;;;;;;;;;;4927574;29;19969;-96
2024/01/25 15:57:10;;;;;;;;;;;;;;;;;;4925264;29;20374;-96
2024/01/25 16:00:08;;;;;;;;;;;;;;;;;;4927678;29;19936;-96
2024/01/25 16:02:38;;;;;;;;;;;;;;;;;;4899884;29;19919;-96
2024/01/25 16:05:04;;;;;;;;;;;;;;;;;;4938198;29;19919;-96
2024/01/25 16:07:29;;;;;;;;;;;;;;;;;;4936276;29;20022;-96
2024/01/25 16:13:13;;;;;;;;;;;;;;;;;;5010117;23;19934;-96
2024/01/25 16:15:39;;;;;;;;;;;;;;;;;;4916836;29;19918;-96
2024/01/25 16:18:04;;;;;;;;;;;;;;;;;;4902384;29;20289;-95
2024/01/25 16:20:30;;;;;;;;;;;;;;;;;;4898538;29;20378;-96
2024/01/25 16:22:56;;;;;;;;;;;;;;;;;;4891085;29;19916;-95
2024/01/25 16:25:21;;;;;;;;;;;;;;;;;;4913661;29;20382;-96
2024/01/25 16:27:48;;;;;;;;;;;;;;;;;;4902724;29;19926;-95
2024/01/25 16:30:14;;;;;;;;;;;;;;;;;;4902782;29;20392;-94
2024/01/25 16:32:57;;;;;;;;;;;;;;;;;;4900984;29;19992;-96
2024/01/25 16:35:23;;;;;;;;;;;;;;;;;;4903326;29;19961;-95
2024/01/25 16:37:51;;;;;;;;;;;;;;;;;;4903463;29;19915;-96
2024/01/25 16:40:16;;;;;;;;;;;;;;;;;;4903158;29;19926;-95
2024/01/25 16:42:42;;;;;;;;;;;;;;;;;;4887300;29;19987;-95
2024/01/25 16:45:07;;;;;;;;;;;;;;;;;;4903502;29;19922;-96
2024/01/25 16:50:18;;;;;;;;;;;;;;;;;;5133831;23;19929;-96
2024/01/25 16:52:44;;;;;;;;;;;;;;;;;;4978742;23;19923;-96
2024/01/25 16:55:09;;;;;;;;;;;;;;;;;;4919438;29;19919;-96
2024/01/25 16:57:40;;;;;;;;;;;;;;;;;;4948004;23;19911;-96
2024/01/25 17:00:09;;;;;;;;;;;;;;;;;;4942950;29;19914;-95
2024/01/25 17:02:34;;;;;;;;;;;;;;;;;;4944735;29;19915;-94
2024/01/25 17:05:00;;;;;;;;;;;;;;;;;;4945262;29;19922;-94
2024/01/25 17:07:26;;;;;;;;;;;;;;;;;;4945381;28;19915;-93
2024/01/25 17:09:51;;;;;;;;;;;;;;;;;;4944939;29;19921;-93
2024/01/25 17:12:21;;;;;;;;;;;;;;;;;;4944948;28;19915;-95
2024/01/25 17:14:46;;;;;;;;;;;;;;;;;;4944289;29;19914;-93
2024/01/25 17:17:21;;;;;;;;;;;;;;;;;;4944349;28;19914;-94
2024/01/25 17:19:46;;;;;;;;;;;;;;;;;;4943937;29;20005;-96
2024/01/25 17:22:12;;;;;;;;;;;;;;;;;;4944416;28;19965;-94
2024/01/25 17:24:38;;;;;;;;;;;;;;;;;;4944143;29;19914;-94
2024/01/25 17:27:03;;;;;;;;;;;;;;;;;;4943483;29;19914;-95
2024/01/25 17:29:29;;;;;;;;;;;;;;;;;;4961342;29;19971;-94
2024/01/25 17:31:54;;;;;;;;;;;;;;;;;;4943703;29;19918;-93
2024/01/25 17:34:19;;;;;;;;;;;;;;;;;;4944720;29;19919;-92
2024/01/25 17:36:45;;;;;;;;;;;;;;;;;;4944666;28;19915;-94
2024/01/25 17:39:10;;;;;;;;;;;;;;;;;;4943395;29;19941;-93
2024/01/25 17:41:35;;;;;;;;;;;;;;;;;;4942871;29;19937;-94
2024/01/25 17:44:01;;;;;;;;;;;;;;;;;;4942584;29;20357;-93
2024/01/25 17:46:26;;;;;;;;;;;;;;;;;;4945150;29;20263;-94
2024/01/25 17:48:52;;;;;;;;;;;;;;;;;;4943393;29;19915;-95
2024/01/25 17:51:17;;;;;;;;;;;;;;;;;;4964557;29;20365;-94
2024/01/25 17:53:43;;;;;;;;;;;;;;;;;;4946573;28;19919;-93
2024/01/25 17:56:08;;;;;;;;;;;;;;;;;;4949035;29;19921;-95
2024/01/25 17:58:33;;;;;;;;;;;;;;;;;;4945868;29;19918;-95
2024/01/25 18:00:59;;;;;;;;;;;;;;;;;;4942665;29;20020;-93
2024/01/25 18:03:24;;;;;;;;;;;;;;;;;;4943993;29;19914;-93
2024/01/25 18:05:54;;;;;;;;;;;;;;;;;;4960745;28;20484;-93
2024/01/25 18:08:20;;;;;;;;;;;;;;;;;;4963274;28;19914;-93
2024/01/25 18:10:45;;;;;;;;;;;;;;;;;;4964218;28;19917;-93
2024/01/25 18:13:10;;;;;;;;;;;;;;;;;;4960987;28;20000;-91
2024/01/25 18:15:36;;;;;;;;;;;;;;;;;;4946300;28;19918;-94
2024/01/25 18:18:01;;;;;;;;;;;;;;;;;;4961556;28;19953;-96
2024/01/25 18:20:27;;;;;;;;;;;;;;;;;;4961990;28;20373;-96
2024/01/25 18:22:52;;;;;;;;;;;;;;;;;;4961744;28;19937;-96
2024/01/25 18:25:17;;;;;;;;;;;;;;;;;;4956569;28;20008;-96
2024/01/25 18:27:43;;;;;;;;;;;;;;;;;;4959375;28;19918;-96
2024/01/25 18:30:09;;;;;;;;;;;;;;;;;;4966302;28;19921;-95
2024/01/25 18:32:34;;;;;;;;;;;;;;;;;;4961573;28;20029;-94
2024/01/25 18:34:59;;;;;;;;;;;;;;;;;;4962574;28;20428;-95
2024/01/25 18:37:25;;;;;;;;;;;;;;;;;;4961524;28;20369;-95
2024/01/25 18:39:50;;;;;;;;;;;;;;;;;;4961365;28;20277;-94
2024/01/25 18:42:16;;;;;;;;;;;;;;;;;;4961243;28;19922;-93
2024/01/25 18:44:41;;;;;;;;;;;;;;;;;;4961533;28;20447;-96
2024/01/25 18:47:08;;;;;;;;;;;;;;;;;;4951412;28;20361;-95
2024/01/25 18:49:34;;;;;;;;;;;;;;;;;;4960696;28;19928;-96
2024/01/25 18:51:59;;;;;;;;;;;;;;;;;;4960503;28;19922;-95
2024/01/25 18:54:27;;;;;;;;;;;;;;;;;;4960766;28;19914;-95
2024/01/25 18:56:53;;;;;;;;;;;;;;;;;;4945092;28;19922;-95
2024/01/25 18:59:18;;;;;;;;;;;;;;;;;;4956711;28;20338;-96
2024/01/25 19:01:45;;;;;;;;;;;;;;;;;;4963681;28;19918;-96
2024/01/25 19:04:11;;;;;;;;;;;;;;;;;;4968558;28;19918;-96
2024/01/25 19:06:39;;;;;;;;;;;;;;;;;;5011936;23;19921;-95
2024/01/25 19:09:05;;;;;;;;;;;;;;;;;;4938137;29;19985;-96
2024/01/25 19:11:31;;;;;;;;;;;;;;;;;;4936517;29;19915;-96
2024/01/25 19:13:56;;;;;;;;;;;;;;;;;;4939234;29;19899;-96
2024/01/25 19:16:29;;;;;;;;;;;;;;;;;;4940911;29;19919;-96
2024/01/25 19:18:57;;;;;;;;;;;;;;;;;;4940256;29;19915;-96
2024/01/25 19:21:22;;;;;;;;;;;;;;;;;;4944506;29;19906;-96
2024/01/25 19:23:48;;;;;;;;;;;;;;;;;;4946518;29;20017;-95
2024/01/25 19:26:13;;;;;;;;;;;;;;;;;;4952097;29;19978;-96
2024/01/25 19:28:40;;;;;;;;;;;;;;;;;;4988427;23;20945;-95
2024/01/25 19:31:05;;;;;;;;;;;;;;;;;;4949988;28;19922;-96
2024/01/25 22:28:19;;;;;;;;;;;;;;;;;;4907847;29;19923;-93
